Time;durP1;ratioP1;P1;durP2;ratioP2;P2;SDS_P1;SDS_P2;PMS_P1;PMS_P2;Temp;Humidity;BMP_temperature;BMP_pressure;BME280_temperature;BME280_humidity;BME280_pressure;Samples;Min_cycle;Max_cycle;Signal;HPM_P1;HPM_P2
2023/01/10 00:00:36;;;;;;;5.13;2.78;;;12.20;90.30;;;;;;5070091;28;20048;-78
2023/01/10 00:03:07;;;;;;;5.80;3.17;;;12.30;90.30;;;;;;5070263;28;20058;-77
2023/01/10 00:05:33;;;;;;;6.30;3.28;;;12.20;90.30;;;;;;5071282;28;20567;-77
2023/01/10 00:08:00;;;;;;;4.88;2.80;;;12.20;90.30;;;;;;5070389;28;20452;-78
2023/01/10 00:10:26;;;;;;;5.85;3.00;;;12.20;90.30;;;;;;5069393;28;20024;-77
2023/01/10 00:15:36;;;;;;;5.35;3.05;;;12.20;90.30;;;;;;5071297;28;20027;-78
2023/01/10 00:18:02;;;;;;;4.95;2.60;;;12.20;90.30;;;;;;5072887;28;20025;-78
2023/01/10 00:20:27;;;;;;;5.00;2.90;;;12.20;90.30;;;;;;5069714;28;20111;-76
2023/01/10 00:22:53;;;;;;;5.32;3.00;;;12.20;90.30;;;;;;5070450;28;20021;-77
2023/01/10 00:25:20;;;;;;;5.55;2.95;;;12.20;90.30;;;;;;5070434;28;20029;-76
2023/01/10 00:27:54;;;;;;;4.88;2.83;;;12.20;90.30;;;;;;5069051;28;20484;-77
2023/01/10 00:30:19;;;;;;;5.82;3.00;;;12.20;90.30;;;;;;5070441;28;20074;-78
2023/01/10 00:32:45;;;;;;;4.95;2.95;;;12.20;90.30;;;;;;5071954;28;20029;-77
2023/01/10 00:35:11;;;;;;;5.32;3.00;;;12.20;90.30;;;;;;5070772;28;20032;-77
2023/01/10 00:37:39;;;;;;;5.32;2.90;;;12.20;90.30;;;;;;5072066;28;20059;-78
2023/01/10 00:40:07;;;;;;;4.10;2.45;;;12.20;90.30;;;;;;5071874;28;20028;-77
2023/01/10 00:45:18;;;;;;;5.25;2.90;;;12.30;90.30;;;;;;5071868;28;20073;-77
2023/01/10 00:47:44;;;;;;;4.28;2.33;;;12.20;90.30;;;;;;5071450;28;20517;-78
2023/01/10 00:50:12;;;;;;;4.95;2.80;;;12.20;90.30;;;;;;5069909;28;20369;-77
2023/01/10 00:52:38;;;;;;;5.40;2.83;;;12.20;90.30;;;;;;5070929;28;20104;-77
2023/01/10 00:55:04;;;;;;;4.70;2.90;;;12.20;90.30;;;;;;5070916;28;20116;-77
2023/01/10 00:57:30;;;;;;;4.45;2.42;;;12.20;90.30;;;;;;5068378;28;20148;-78
2023/01/10 00:59:55;;;;;;;4.47;2.60;;;12.10;90.30;;;;;;5070384;28;20512;-77
2023/01/10 01:02:21;;;;;;;4.70;2.80;;;12.20;90.30;;;;;;5069638;28;20021;-77
2023/01/10 01:04:46;;;;;;;4.95;2.63;;;12.20;90.30;;;;;;5070539;28;20119;-78
2023/01/10 01:07:12;;;;;;;4.32;2.28;;;12.20;90.30;;;;;;5070597;28;20028;-78
2023/01/10 01:10:25;;;;;;;5.40;2.65;;;12.10;90.30;;;;;;5070620;28;20023;-77
2023/01/10 01:12:23;;;;;;;4.57;2.60;;;12.20;90.30;;;;;;5070220;28;20108;-77
2023/01/10 01:14:48;;;;;;;5.70;2.83;;;12.20;90.30;;;;;;5070299;28;20135;-78
2023/01/10 01:17:14;;;;;;;4.65;2.60;;;12.20;90.30;;;;;;5069090;28;20115;-77
2023/01/10 01:19:40;;;;;;;4.68;2.67;;;12.20;90.30;;;;;;5070602;28;20028;-78
2023/01/10 01:22:05;;;;;;;4.15;2.25;;;12.20;90.30;;;;;;5070735;28;20112;-78
2023/01/10 01:24:31;;;;;;;4.60;2.78;;;12.20;90.30;;;;;;5071031;28;20604;-78
2023/01/10 01:26:56;;;;;;;5.05;2.53;;;12.20;90.30;;;;;;5070715;28;20035;-78
2023/01/10 01:29:23;;;;;;;4.95;2.40;;;12.20;90.30;;;;;;5070101;28;20123;-77
2023/01/10 01:31:49;;;;;;;4.65;2.60;;;12.20;90.30;;;;;;5069557;28;20040;-78
2023/01/10 01:34:14;;;;;;;4.20;2.35;;;12.20;90.30;;;;;;5070036;28;20028;-78
2023/01/10 01:36:40;;;;;;;4.53;2.40;;;12.20;90.30;;;;;;5069276;28;20028;-78
2023/01/10 01:39:05;;;;;;;4.53;2.45;;;12.20;90.30;;;;;;5069132;28;20562;-77
2023/01/10 01:44:17;;;;;;;4.35;2.28;;;12.20;90.30;;;;;;5069858;28;20635;-78
2023/01/10 01:46:59;;;;;;;4.82;2.50;;;12.20;90.30;;;;;;5070326;28;20028;-77
2023/01/10 01:49:24;;;;;;;;;;;12.20;90.30;;;;;;5070724;28;20515;-79
2023/01/10 01:51:58;;;;;;;3.85;2.25;;;12.20;90.30;;;;;;5069280;28;19913;-76
2023/01/10 01:54:25;;;;;;;4.25;2.33;;;12.20;90.30;;;;;;5068594;28;20104;-76
2023/01/10 01:57:07;;;;;;;3.83;2.25;;;12.20;90.30;;;;;;5068039;28;20297;-78
2023/01/10 01:59:37;;;;;;;3.75;2.13;;;12.20;90.30;;;;;;5068955;28;20025;-78
2023/01/10 02:02:12;;;;;;;5.97;2.70;;;12.20;90.30;;;;;;5067421;28;20538;-77
2023/01/10 02:05:14;;;;;;;5.07;2.42;;;12.20;90.30;;;;;;5069215;28;20732;-76
2023/01/10 02:07:44;;;;;;;4.10;2.13;;;12.20;90.30;;;;;;5023247;28;20411;-77
2023/01/10 02:10:17;;;;;;;4.25;2.22;;;12.20;90.30;;;;;;5068730;28;20025;-77
2023/01/10 02:12:44;;;;;;;4.50;2.30;;;12.20;90.30;;;;;;5067240;28;20067;-78
2023/01/10 02:15:10;;;;;;;4.32;2.30;;;12.20;90.30;;;;;;5068886;28;20031;-77
2023/01/10 02:17:37;;;;;;;4.45;2.20;;;12.20;90.30;;;;;;5069831;28;20071;-79
2023/01/10 02:20:10;;;;;;;4.28;2.33;;;12.20;90.30;;;;;;5069072;28;20357;-77
2023/01/10 02:23:18;;;;;;;4.30;2.22;;;12.20;90.30;;;;;;5069407;28;20036;-77
2023/01/10 02:26:20;;;;;;;3.67;2.13;;;12.20;90.30;;;;;;5067940;28;20578;-76
2023/01/10 02:29:23;;;;;;;4.95;2.60;;;12.20;90.30;;;;;;5066569;28;20060;-76
2023/01/10 02:32:23;;;;;;;4.15;2.35;;;12.20;90.30;;;;;;5066885;28;20158;-78
2023/01/10 02:35:26;;;;;;;3.95;2.22;;;12.20;90.30;;;;;;5066855;28;20029;-78
2023/01/10 02:38:18;;;;;;;4.68;2.20;;;12.20;90.30;;;;;;5068044;28;20078;-76
2023/01/10 02:41:14;;;;;;;4.82;2.30;;;12.20;90.30;;;;;;5066980;28;20119;-78
2023/01/10 02:43:46;;;;;;;4.78;2.25;;;12.20;90.30;;;;;;5067213;28;20032;-78
2023/01/10 02:46:23;;;;;;;4.40;2.20;;;12.10;90.30;;;;;;5066469;28;20032;-77
2023/01/10 02:48:50;;;;;;;4.65;2.20;;;12.10;90.30;;;;;;5067856;28;20666;-77
2023/01/10 02:51:22;;;;;;;4.30;2.10;;;12.20;90.30;;;;;;5067945;28;20040;-77
2023/01/10 02:54:09;;;;;;;;;;;12.10;90.30;;;;;;5068153;28;20052;-77
2023/01/10 02:56:47;;;;;;;3.83;2.17;;;12.20;90.30;;;;;;5067438;28;20007;-77
2023/01/10 02:59:18;;;;;;;4.97;2.38;;;12.10;90.30;;;;;;5068212;28;20107;-78
2023/01/10 03:02:13;;;;;;;4.30;2.22;;;12.10;90.30;;;;;;5069060;28;20021;-77
2023/01/10 03:04:49;;;;;;;3.85;2.13;;;12.10;90.30;;;;;;5067458;28;20067;-78
2023/01/10 03:07:38;;;;;;;5.00;2.38;;;12.10;90.30;;;;;;5067439;28;20081;-78
2023/01/10 03:10:17;;;;;;;3.67;2.05;;;12.20;90.40;;;;;;5067334;28;20078;-77
2023/01/10 03:13:03;;;;;;;4.78;2.70;;;12.20;90.30;;;;;;5065993;28;20609;-77
2023/01/10 03:15:33;;;;;;;3.75;2.10;;;12.10;90.30;;;;;;5068636;28;20043;-76
2023/01/10 03:18:01;;;;;;;4.45;2.35;;;12.10;90.30;;;;;;5065957;28;20078;-77
2023/01/10 03:20:30;;;;;;;4.60;2.47;;;12.10;90.30;;;;;;5070998;28;20115;-76
2023/01/10 03:22:55;;;;;;;4.88;2.25;;;12.10;90.60;;;;;;5072372;28;20035;-77
2023/01/10 03:25:26;;;;;;;5.28;2.30;;;12.20;90.40;;;;;;5072829;28;20043;-78
2023/01/10 03:28:07;;;;;;;5.65;2.40;;;12.10;90.30;;;;;;5072661;28;20074;-77
2023/01/10 03:30:53;;;;;;;4.65;2.45;;;12.10;90.30;;;;;;5073076;28;20029;-76
2023/01/10 03:33:24;;;;;;;3.75;1.90;;;12.10;90.30;;;;;;5069133;28;20055;-78
2023/01/10 03:35:56;;;;;;;4.78;2.30;;;12.10;90.40;;;;;;5074260;28;20039;-78
2023/01/10 03:38:56;;;;;;;4.30;2.13;;;12.10;90.40;;;;;;5074540;28;20392;-77
2023/01/10 03:41:43;;;;;;;5.05;2.40;;;12.10;90.60;;;;;;5073694;28;20504;-76
2023/01/10 03:47:32;;;;;;;4.18;2.17;;;12.10;90.30;;;;;;5074831;28;20035;-77
2023/01/10 03:50:05;;;;;;;5.35;2.30;;;12.10;90.40;;;;;;5074415;28;20032;-78
2023/01/10 03:52:33;;;;;;;4.70;2.47;;;12.20;90.40;;;;;;5075158;28;20062;-80
2023/01/10 03:55:01;;;;;;;4.57;2.35;;;12.10;90.40;;;;;;5074239;28;20461;-79
2023/01/10 03:57:26;;;;;;;4.65;2.33;;;12.10;90.40;;;;;;5074996;28;20443;-77
2023/01/10 03:59:56;;;;;;;5.10;2.38;;;12.10;90.40;;;;;;5075451;28;20028;-81
2023/01/10 04:02:25;;;;;;;5.82;2.25;;;12.10;90.40;;;;;;5074860;28;20035;-78
2023/01/10 04:04:51;;;;;;;4.70;2.40;;;12.10;90.40;;;;;;5074009;28;20362;-78
2023/01/10 04:07:16;;;;;;;4.35;2.30;;;12.10;90.40;;;;;;5075395;28;20090;-78
2023/01/10 04:09:41;;;;;;;5.03;2.60;;;12.20;90.40;;;;;;5074903;28;20032;-78
2023/01/10 04:12:07;;;;;;;4.97;2.22;;;12.10;90.40;;;;;;5073601;28;20024;-78
2023/01/10 04:14:32;;;;;;;4.97;2.22;;;12.10;90.40;;;;;;5073456;28;20480;-78
2023/01/10 04:16:58;;;;;;;6.13;2.50;;;12.10;90.40;;;;;;5074560;28;20040;-78
2023/01/10 04:19:24;;;;;;;5.18;2.30;;;12.10;90.30;;;;;;5073674;28;20296;-78
2023/01/10 04:21:50;;;;;;;4.40;2.22;;;12.10;90.40;;;;;;5073714;28;20032;-78
2023/01/10 04:24:15;;;;;;;6.10;2.40;;;12.10;90.30;;;;;;5074562;28;20036;-78
2023/01/10 04:26:41;;;;;;;5.68;2.50;;;12.10;90.30;;;;;;5074148;28;20064;-78
2023/01/10 04:29:06;;;;;;;5.65;2.70;;;12.10;90.30;;;;;;5073280;28;20473;-78
2023/01/10 04:31:32;;;;;;;4.40;2.25;;;12.10;90.30;;;;;;5069419;28;20024;-77
2023/01/10 04:33:57;;;;;;;5.25;2.40;;;12.00;90.30;;;;;;5069164;28;20028;-77
2023/01/10 04:36:23;;;;;;;4.88;2.28;;;12.10;90.40;;;;;;5071229;28;20029;-77
2023/01/10 04:38:49;;;;;;;4.18;2.35;;;12.10;90.40;;;;;;5069303;28;20052;-77
2023/01/10 04:41:14;;;;;;;3.70;2.00;;;12.10;90.40;;;;;;5070521;28;20097;-78
2023/01/10 04:43:39;;;;;;;4.60;2.30;;;12.10;90.40;;;;;;5072170;28;20088;-76
2023/01/10 04:46:05;;;;;;;4.05;2.22;;;12.10;90.30;;;;;;5074934;28;20029;-81
2023/01/10 04:48:31;;;;;;;4.93;2.42;;;12.10;90.40;;;;;;5071075;28;20036;-78
2023/01/10 04:50:56;;;;;;;4.30;2.38;;;12.10;90.40;;;;;;5071258;28;20753;-77
2023/01/10 04:53:22;;;;;;;4.70;2.25;;;12.10;90.40;;;;;;5071786;28;20043;-78
2023/01/10 04:55:47;;;;;;;5.22;2.30;;;12.10;90.40;;;;;;5072648;28;20039;-78
2023/01/10 04:58:13;;;;;;;4.47;2.10;;;12.10;90.40;;;;;;5070021;28;20653;-78
2023/01/10 05:00:38;;;;;;;4.88;2.35;;;12.10;90.40;;;;;;5070713;28;20059;-78
2023/01/10 05:03:04;;;;;;;5.25;2.63;;;12.10;90.40;;;;;;5067233;28;20040;-79
2023/01/10 05:05:30;;;;;;;5.03;2.13;;;12.10;90.40;;;;;;5071145;28;20032;-82
2023/01/10 05:07:56;;;;;;;4.80;2.05;;;12.10;90.30;;;;;;5069406;28;20035;-77
2023/01/10 05:10:21;;;;;;;5.13;2.30;;;12.10;90.30;;;;;;5070204;28;20662;-77
2023/01/10 05:12:47;;;;;;;5.82;2.40;;;12.10;90.30;;;;;;5070735;28;20099;-78
2023/01/10 05:15:13;;;;;;;5.05;2.13;;;12.10;90.50;;;;;;5069684;28;20021;-77
2023/01/10 05:17:39;;;;;;;4.20;2.10;;;12.10;90.30;;;;;;5069007;28;20066;-78
2023/01/10 05:20:06;;;;;;;5.38;2.55;;;12.10;90.30;;;;;;5070014;28;20017;-77
2023/01/10 05:22:31;;;;;;;4.47;2.20;;;12.10;90.30;;;;;;5068683;28;20029;-79
2023/01/10 05:24:57;;;;;;;5.28;2.30;;;12.10;90.30;;;;;;5070580;28;20109;-77
2023/01/10 05:27:22;;;;;;;5.20;2.30;;;12.10;90.30;;;;;;5070037;28;20032;-78
2023/01/10 05:29:48;;;;;;;3.80;1.85;;;12.10;90.30;;;;;;5070826;28;20054;-80
2023/01/10 05:32:13;;;;;;;5.80;2.20;;;12.10;90.30;;;;;;5071090;28;20030;-82
2023/01/10 05:34:39;;;;;;;4.47;2.22;;;12.10;90.30;;;;;;5069079;28;20150;-81
2023/01/10 05:37:04;;;;;;;5.85;2.40;;;12.10;90.30;;;;;;5069417;28;20480;-78
2023/01/10 05:39:30;;;;;;;4.90;2.58;;;12.10;90.30;;;;;;5069418;28;20365;-76
2023/01/10 05:41:55;;;;;;;4.72;2.25;;;12.10;90.30;;;;;;5070699;28;20024;-79
2023/01/10 05:44:21;;;;;;;5.53;2.28;;;12.10;90.30;;;;;;5070290;28;20590;-78
2023/01/10 05:46:46;;;;;;;5.15;2.45;;;12.00;90.20;;;;;;5067899;28;20020;-77
2023/01/10 05:49:12;;;;;;;5.03;2.20;;;12.00;90.20;;;;;;5075184;28;20559;-79
2023/01/10 05:51:38;;;;;;;5.65;2.35;;;12.00;90.20;;;;;;5074426;28;20020;-81
2023/01/10 05:54:03;;;;;;;4.53;2.20;;;12.10;90.30;;;;;;5074419;28;20044;-80
2023/01/10 05:56:29;;;;;;;6.80;2.28;;;12.00;90.20;;;;;;5075582;28;20484;-79
2023/01/10 05:58:55;;;;;;;5.35;2.38;;;12.10;90.30;;;;;;5074865;28;20028;-79
2023/01/10 06:01:21;;;;;;;6.43;2.00;;;12.10;90.30;;;;;;5076472;28;20029;-79
2023/01/10 06:03:47;;;;;;;5.78;2.92;;;12.00;90.20;;;;;;5075365;28;20024;-80
2023/01/10 06:06:12;;;;;;;5.13;2.00;;;12.00;90.20;;;;;;5074244;28;20415;-79
2023/01/10 06:08:39;;;;;;;4.07;2.08;;;12.00;90.30;;;;;;5075441;28;20111;-80
2023/01/10 06:11:05;;;;;;;4.95;2.13;;;12.00;90.20;;;;;;5073567;28;20029;-79
2023/01/10 06:13:31;;;;;;;5.53;2.25;;;12.00;90.30;;;;;;5077028;28;20025;-80
2023/01/10 06:15:57;;;;;;;4.60;1.90;;;12.10;90.30;;;;;;5075342;28;20025;-81
2023/01/10 06:18:22;;;;;;;4.68;2.05;;;12.00;90.30;;;;;;5073485;28;20065;-82
2023/01/10 06:20:48;;;;;;;5.45;2.22;;;12.00;90.50;;;;;;5075037;28;20021;-80
2023/01/10 06:23:14;;;;;;;4.78;2.13;;;12.00;90.30;;;;;;5077014;28;20093;-81
2023/01/10 06:25:40;;;;;;;6.38;2.00;;;12.00;90.30;;;;;;5076491;28;20442;-81
2023/01/10 06:28:12;;;;;;;4.43;2.10;;;12.00;90.30;;;;;;5074373;28;20024;-81
2023/01/10 06:30:40;;;;;;;5.65;2.25;;;11.90;90.20;;;;;;5073072;28;20028;-81
2023/01/10 06:33:07;;;;;;;4.00;2.10;;;12.00;90.30;;;;;;5074164;28;20028;-80
2023/01/10 06:35:33;;;;;;;5.65;2.10;;;12.00;90.30;;;;;;5073605;28;20070;-80
2023/01/10 06:37:58;;;;;;;5.38;1.95;;;12.00;90.30;;;;;;5075513;28;20025;-79
2023/01/10 06:40:25;;;;;;;7.05;2.38;;;12.00;90.20;;;;;;5074581;28;20488;-79
2023/01/10 06:42:50;;;;;;;4.30;2.03;;;12.00;90.30;;;;;;5073056;28;20115;-80
2023/01/10 06:45:17;;;;;;;3.88;2.10;;;12.00;90.30;;;;;;5074181;28;20063;-80
2023/01/10 06:47:42;;;;;;;4.72;2.33;;;12.10;90.30;;;;;;5073572;28;20062;-80
2023/01/10 06:50:08;;;;;;;5.20;1.90;;;12.00;90.30;;;;;;5073438;28;20025;-80
2023/01/10 06:52:34;;;;;;;4.13;2.20;;;12.00;90.30;;;;;;5074107;28;20024;-80
2023/01/10 06:55:00;;;;;;;4.45;1.98;;;12.00;90.30;;;;;;5071975;28;20539;-80
2023/01/10 06:57:27;;;;;;;4.90;2.40;;;12.00;90.30;;;;;;5063751;28;20024;-75
2023/01/10 06:59:52;;;;;;;4.35;2.20;;;12.00;90.30;;;;;;5050576;28;20031;-78
2023/01/10 07:02:18;;;;;;;5.30;2.30;;;12.00;90.30;;;;;;5050856;28;20142;-77
2023/01/10 07:04:44;;;;;;;5.15;2.10;;;12.00;90.30;;;;;;5050605;28;20048;-75
2023/01/10 07:07:09;;;;;;;4.07;2.00;;;12.00;90.30;;;;;;5072168;28;20029;-80
2023/01/10 07:09:34;;;;;;;4.97;2.30;;;12.00;90.30;;;;;;5074893;28;20094;-79
2023/01/10 07:12:00;;;;;;;5.38;2.47;;;12.00;90.30;;;;;;5077763;28;20088;-82
2023/01/10 07:14:26;;;;;;;4.80;2.20;;;12.00;90.20;;;;;;5074462;28;20484;-81
2023/01/10 07:16:51;;;;;;;4.82;2.03;;;12.00;90.30;;;;;;5072609;28;20025;-81
2023/01/10 07:19:18;;;;;;;5.60;2.40;;;12.00;90.30;;;;;;5074646;28;20050;-81
2023/01/10 07:21:44;;;;;;;4.28;2.22;;;11.90;90.20;;;;;;5073571;28;20043;-78
2023/01/10 07:24:09;;;;;;;5.28;2.28;;;12.00;90.30;;;;;;5070432;28;20028;-77
2023/01/10 07:26:35;;;;;;;5.90;2.53;;;12.00;90.30;;;;;;5072213;28;20027;-77
2023/01/10 07:29:01;;;;;;;5.10;2.13;;;12.00;90.30;;;;;;5071342;28;20025;-76
2023/01/10 07:31:27;;;;;;;5.80;2.30;;;11.90;90.20;;;;;;5072508;28;20051;-81
2023/01/10 07:33:52;;;;;;;5.45;2.30;;;12.00;90.30;;;;;;5073826;28;20059;-80
2023/01/10 07:36:18;;;;;;;4.82;2.50;;;12.00;90.30;;;;;;5073142;28;20039;-78
2023/01/10 07:38:44;;;;;;;5.35;2.50;;;12.00;90.50;;;;;;5072216;28;20020;-80
2023/01/10 07:41:10;;;;;;;6.53;2.60;;;12.00;90.30;;;;;;5073664;28;20033;-75
2023/01/10 07:43:36;;;;;;;5.10;2.20;;;12.00;90.30;;;;;;5070520;28;20024;-79
2023/01/10 07:46:04;;;;;;;4.22;2.13;;;12.00;90.30;;;;;;5071524;28;20028;-79
2023/01/10 07:48:29;;;;;;;5.28;2.53;;;12.00;90.30;;;;;;5073345;28;20021;-79
2023/01/10 07:50:56;;;;;;;5.05;2.20;;;12.00;90.20;;;;;;5070730;28;20502;-75
2023/01/10 07:53:22;;;;;;;5.32;2.42;;;12.00;90.20;;;;;;5070367;28;20078;-78
2023/01/10 07:55:48;;;;;;;5.88;2.47;;;12.00;90.20;;;;;;5071860;28;20476;-76
2023/01/10 07:58:13;;;;;;;5.25;2.50;;;12.00;90.20;;;;;;5072051;28;20060;-77
2023/01/10 08:00:39;;;;;;;4.70;2.30;;;12.00;90.20;;;;;;5070464;28;20017;-78
2023/01/10 08:03:05;;;;;;;4.60;2.53;;;12.00;90.20;;;;;;5070429;28;20077;-79
2023/01/10 08:05:31;;;;;;;5.55;2.67;;;12.00;90.30;;;;;;5071818;28;20112;-74
2023/01/10 08:07:58;;;;;;;5.35;2.40;;;12.00;90.20;;;;;;5074743;28;20110;-80
2023/01/10 08:10:25;;;;;;;6.15;2.60;;;12.00;90.20;;;;;;5074835;28;20059;-80
2023/01/10 08:12:50;;;;;;;6.32;2.58;;;12.00;90.20;;;;;;5075754;28;20059;-80
2023/01/10 08:15:16;;;;;;;4.18;2.33;;;12.00;90.20;;;;;;5074930;28;20032;-79
2023/01/10 08:17:41;;;;;;;6.20;2.85;;;12.00;90.20;;;;;;5073741;28;20039;-79
2023/01/10 08:20:08;;;;;;;5.13;2.47;;;12.00;90.20;;;;;;5074926;28;20432;-80
2023/01/10 08:22:34;;;;;;;5.43;2.50;;;12.00;90.20;;;;;;5073410;28;20111;-78
2023/01/10 08:24:59;;;;;;;5.30;2.60;;;12.00;90.20;;;;;;5073662;28;20100;-79
2023/01/10 08:27:25;;;;;;;5.60;2.45;;;12.00;90.20;;;;;;5073490;28;20504;-78
2023/01/10 08:29:50;;;;;;;4.60;2.30;;;12.00;90.20;;;;;;5073481;28;20025;-79
2023/01/10 08:32:16;;;;;;;4.72;2.58;;;12.00;90.50;;;;;;5073353;28;20047;-79
2023/01/10 08:34:41;;;;;;;7.65;3.05;;;12.00;90.20;;;;;;5073082;28;20112;-82
2023/01/10 08:37:10;;;;;;;5.53;2.88;;;12.00;90.20;;;;;;5073442;28;20024;-78
2023/01/10 08:39:38;;;;;;;4.53;2.45;;;12.00;90.20;;;;;;5074492;28;20164;-78
2023/01/10 08:42:03;;;;;;;4.63;2.50;;;12.00;90.20;;;;;;5073331;28;20023;-78
2023/01/10 08:44:29;;;;;;;5.15;2.60;;;12.00;90.20;;;;;;5074130;28;20107;-78
2023/01/10 08:46:55;;;;;;;7.45;2.90;;;12.00;90.30;;;;;;5073441;28;20025;-79
2023/01/10 08:49:21;;;;;;;5.28;2.50;;;12.00;90.20;;;;;;5073196;28;20100;-79
2023/01/10 08:51:46;;;;;;;5.25;2.88;;;12.00;90.20;;;;;;5073430;28;20387;-82
2023/01/10 08:54:12;;;;;;;7.25;2.85;;;12.00;90.20;;;;;;5072873;28;20412;-78
2023/01/10 08:56:39;;;;;;;5.50;2.67;;;12.00;90.20;;;;;;5074268;28;20044;-78
2023/01/10 08:59:05;;;;;;;8.18;2.85;;;12.00;90.20;;;;;;5074972;28;20046;-78
2023/01/10 09:01:30;;;;;;;4.75;2.30;;;12.00;90.20;;;;;;5073908;28;20117;-79
2023/01/10 09:03:55;;;;;;;4.97;2.67;;;12.00;90.20;;;;;;5074659;28;20029;-80
2023/01/10 09:06:22;;;;;;;5.70;2.60;;;12.00;90.20;;;;;;5074193;28;20024;-78
2023/01/10 09:08:48;;;;;;;5.90;2.83;;;12.00;90.20;;;;;;5075163;28;20024;-78
2023/01/10 09:11:14;;;;;;;5.78;2.55;;;12.00;90.20;;;;;;5074679;28;20392;-78
2023/01/10 09:13:39;;;;;;;6.10;2.58;;;12.00;90.20;;;;;;5074431;28;20103;-79
2023/01/10 09:16:05;;;;;;;5.38;2.72;;;12.00;90.20;;;;;;5073422;28;20456;-80
2023/01/10 09:18:30;;;;;;;4.72;2.45;;;12.00;90.20;;;;;;5072777;28;20025;-79
2023/01/10 09:20:56;;;;;;;4.47;2.33;;;12.00;90.20;;;;;;5073423;28;20074;-78
2023/01/10 09:23:22;;;;;;;5.43;2.72;;;12.00;90.20;;;;;;5074228;28;20028;-77
2023/01/10 09:25:53;;;;;;;5.63;2.50;;;11.90;90.20;;;;;;5073255;28;20060;-77
2023/01/10 09:28:20;;;;;;;5.97;2.60;;;12.00;90.20;;;;;;5074429;28;20024;-78
2023/01/10 09:30:46;;;;;;;6.13;2.70;;;12.00;90.20;;;;;;5073464;28;20035;-78
2023/01/10 09:33:12;;;;;;;4.38;2.42;;;12.00;90.20;;;;;;5073846;28;20032;-78
2023/01/10 09:35:39;;;;;;;5.72;2.42;;;11.90;90.40;;;;;;5074598;28;20099;-80
2023/01/10 09:38:08;;;;;;;4.65;2.50;;;12.00;90.20;;;;;;5074533;28;20499;-78
2023/01/10 09:41:13;;;;;;;6.57;2.65;;;12.00;90.20;;;;;;5073192;28;20499;-78
2023/01/10 09:44:09;;;;;;;7.38;2.85;;;11.90;90.20;;;;;;5074088;28;20107;-78
2023/01/10 09:47:05;;;;;;;6.70;2.80;;;11.90;90.10;;;;;;5072793;28;20025;-79
2023/01/10 09:50:00;;;;;;;6.45;2.88;;;12.00;90.00;;;;;;5072927;28;20032;-78
2023/01/10 09:52:43;;;;;;;6.97;3.03;;;12.00;90.00;;;;;;5072717;28;20036;-80
2023/01/10 09:55:15;;;;;;;5.82;2.80;;;12.00;90.10;;;;;;5073629;28;20115;-78
2023/01/10 09:57:40;;;;;;;6.93;2.90;;;12.00;90.10;;;;;;5072758;28;20032;-80
2023/01/10 10:00:07;;;;;;;7.25;2.72;;;12.00;90.10;;;;;;5072560;28;20082;-79
2023/01/10 10:02:38;;;;;;;6.70;2.75;;;12.00;90.10;;;;;;5072784;28;20025;-77
2023/01/10 10:05:25;;;;;;;7.30;3.20;;;12.00;90.10;;;;;;5072711;28;20028;-79
2023/01/10 10:08:03;;;;;;;6.28;2.85;;;12.00;90.10;;;;;;5073497;28;20408;-78
2023/01/10 10:10:42;;;;;;;7.95;3.00;;;12.00;90.10;;;;;;5072864;28;20028;-78
2023/01/10 10:13:34;;;;;;;6.82;3.30;;;11.90;90.10;;;;;;5072121;28;20125;-76
2023/01/10 10:16:35;;;;;;;7.07;3.00;;;11.90;90.10;;;;;;5072894;28;20111;-78
2023/01/10 10:19:32;;;;;;;6.38;3.20;;;12.00;90.10;;;;;;5074502;28;20051;-81
2023/01/10 10:22:25;;;;;;;6.63;3.17;;;11.90;90.10;;;;;;5073291;28;20064;-79
2023/01/10 10:25:06;;;;;;;6.90;2.90;;;12.00;90.10;;;;;;5072132;28;20025;-79
2023/01/10 10:27:45;;;;;;;7.03;2.85;;;11.90;90.10;;;;;;5071545;28;20025;-79
2023/01/10 10:30:25;;;;;;;7.63;3.05;;;12.00;90.10;;;;;;5070598;28;20040;-78
2023/01/10 10:33:32;;;;;;;6.38;3.00;;;12.00;90.10;;;;;;5072934;28;20492;-79
2023/01/10 10:36:03;;;;;;;6.22;3.28;;;11.90;90.10;;;;;;4994833;28;20034;-78
2023/01/10 10:38:33;;;;;;;6.28;3.20;;;12.00;90.10;;;;;;5065511;28;20488;-78
2023/01/10 10:41:00;;;;;;;6.75;3.08;;;12.00;90.10;;;;;;5072217;28;20032;-78
2023/01/10 10:43:31;;;;;;;8.23;3.13;;;12.00;90.10;;;;;;5073087;28;20060;-78
2023/01/10 10:46:13;;;;;;;8.30;3.28;;;11.90;90.10;;;;;;5075320;28;20081;-79
2023/01/10 10:48:42;;;;;;;7.85;3.05;;;12.00;90.10;;;;;;5072277;28;20036;-82
2023/01/10 10:51:20;;;;;;;7.72;3.25;;;12.00;90.10;;;;;;5071593;28;20024;-77
2023/01/10 10:53:47;;;;;;;8.20;3.50;;;12.00;90.10;;;;;;5071099;28;20024;-80
2023/01/10 10:56:17;;;;;;;6.85;3.20;;;12.00;90.00;;;;;;5070950;28;20115;-80
2023/01/10 10:58:47;;;;;;;7.45;3.30;;;12.00;90.00;;;;;;5070736;28;20464;-79
2023/01/10 11:01:14;;;;;;;6.97;3.20;;;12.00;90.00;;;;;;5072661;28;20399;-79
2023/01/10 11:03:48;;;;;;;6.63;3.00;;;12.00;90.00;;;;;;5071263;28;20086;-85
2023/01/10 11:06:15;;;;;;;7.47;3.58;;;12.00;90.00;;;;;;5074164;28;20487;-80
2023/01/10 11:08:45;;;;;;;6.93;3.72;;;12.00;90.00;;;;;;5071715;28;20033;-80
2023/01/10 11:11:32;;;;;;;8.93;3.63;;;11.90;90.00;;;;;;5072250;28;20060;-81
2023/01/10 11:14:04;;;;;;;7.90;3.53;;;12.00;90.00;;;;;;5071448;28;20111;-80
2023/01/10 11:16:35;;;;;;;7.82;3.60;;;12.00;90.00;;;;;;5073712;28;20484;-80
2023/01/10 11:19:25;;;;;;;6.60;3.08;;;12.00;90.00;;;;;;5071617;28;20052;-83
2023/01/10 11:22:02;;;;;;;7.67;3.30;;;12.00;90.00;;;;;;5073174;28;20020;-78
2023/01/10 11:24:34;;;;;;;7.57;3.30;;;12.00;90.00;;;;;;5071312;28;20637;-78
2023/01/10 11:27:21;;;;;;;8.30;3.47;;;12.00;90.00;;;;;;5074333;28;20025;-80
2023/01/10 11:29:50;;;;;;;7.88;3.47;;;12.00;90.00;;;;;;5073770;28;20031;-79
2023/01/10 11:32:21;;;;;;;8.25;3.72;;;12.00;90.00;;;;;;5073842;28;20036;-78
2023/01/10 11:34:58;;;;;;;6.20;3.00;;;12.00;90.00;;;;;;5073344;28;20048;-79
2023/01/10 11:37:31;;;;;;;6.68;3.50;;;12.00;90.00;;;;;;5074436;28;20027;-79
2023/01/10 11:40:22;;;;;;;8.70;3.63;;;12.00;90.00;;;;;;5073173;28;20115;-80
2023/01/10 11:42:49;;;;;;;7.40;3.28;;;12.00;90.00;;;;;;5074826;28;20021;-79
2023/01/10 11:45:18;;;;;;;7.88;3.40;;;12.00;90.00;;;;;;5076276;28;20039;-79
2023/01/10 11:47:53;;;;;;;6.70;3.42;;;12.00;90.00;;;;;;5077921;28;20028;-80
2023/01/10 11:50:23;;;;;;;7.07;3.50;;;12.00;90.00;;;;;;5078658;28;20020;-80
2023/01/10 11:52:49;;;;;;;7.60;3.45;;;12.00;89.90;;;;;;5076116;28;20032;-74
2023/01/10 11:55:36;;;;;;;7.00;3.28;;;12.00;89.80;;;;;;5074615;28;20024;-76
2023/01/10 11:58:11;;;;;;;7.10;3.20;;;12.00;89.80;;;;;;5075433;28;20035;-75
2023/01/10 12:00:42;;;;;;;7.88;3.50;;;12.10;89.80;;;;;;5074086;28;20021;-75
2023/01/10 12:03:23;;;;;;;6.20;3.45;;;12.10;89.80;;;;;;5075549;28;20469;-75
2023/01/10 12:05:57;;;;;;;7.47;3.40;;;12.10;89.70;;;;;;5074016;28;20035;-75
2023/01/10 12:08:27;;;;;;;6.63;3.22;;;12.10;89.60;;;;;;5075495;28;20497;-75
2023/01/10 12:11:05;;;;;;;6.50;3.30;;;12.10;89.50;;;;;;5074810;28;20055;-79
2023/01/10 12:13:43;;;;;;;7.47;3.50;;;12.10;89.60;;;;;;5077529;28;20031;-80
2023/01/10 12:16:27;;;;;;;7.43;3.20;;;12.10;89.50;;;;;;5078024;28;20048;-80
2023/01/10 12:18:59;;;;;;;5.50;3.13;;;12.10;89.60;;;;;;5076725;28;20027;-79
2023/01/10 12:21:44;;;;;;;8.38;3.90;;;12.10;89.60;;;;;;5077140;28;20029;-80
2023/01/10 12:24:19;;;;;;;6.93;3.05;;;12.10;89.70;;;;;;5075915;28;20104;-81
2023/01/10 12:26:46;;;;;;;7.28;3.45;;;12.00;89.20;;;;;;5080033;28;20046;-82
2023/01/10 12:29:16;;;;;;;11.02;3.85;;;12.00;89.10;;;;;;5079371;28;20036;-83
2023/01/10 12:31:42;;;;;;;28.48;5.90;;;12.00;89.20;;;;;;5081074;28;20028;-81
2023/01/10 12:34:19;;;;;;;19.55;4.93;;;12.10;88.80;;;;;;5079851;28;20093;-80
2023/01/10 12:37:07;;;;;;;21.55;5.65;;;12.00;88.60;;;;;;5081723;28;20025;-80
2023/01/10 12:39:40;;;;;;;18.60;5.40;;;12.00;88.50;;;;;;5073707;28;20021;-81
2023/01/10 12:45:06;;;;;;;19.92;5.13;;;12.00;88.10;;;;;;5057442;28;20083;-80
2023/01/10 12:47:56;;;;;;;23.15;5.30;;;12.00;88.20;;;;;;5055245;28;20123;-80
2023/01/10 12:50:31;;;;;;;13.70;4.30;;;12.00;88.40;;;;;;5054664;28;20044;-78
2023/01/10 12:53:35;;;;;;;14.40;4.45;;;12.00;88.70;;;;;;5053753;28;20029;-80
2023/01/10 12:56:06;;;;;;;14.30;4.70;;;12.00;88.90;;;;;;5014385;28;20077;-78
2023/01/10 12:58:44;;;;;;;15.60;4.57;;;12.00;89.10;;;;;;5043759;28;20057;-77
2023/01/10 13:01:17;;;;;;;13.20;4.40;;;12.00;88.90;;;;;;5057273;28;20032;-81
2023/01/10 13:03:45;;;;;;;13.80;4.53;;;12.00;88.80;;;;;;5061937;28;20032;-82
2023/01/10 13:06:29;;;;;;;16.70;4.93;;;12.00;88.90;;;;;;5060686;28;20501;-81
2023/01/10 13:08:56;;;;;;;17.92;4.90;;;12.00;88.90;;;;;;5067805;28;20096;-82
2023/01/10 13:11:28;;;;;;;17.88;5.35;;;12.00;89.10;;;;;;5061089;28;20036;-83
2023/01/10 13:13:59;;;;;;;13.10;4.38;;;12.00;89.10;;;;;;5055107;28;20478;-80
2023/01/10 13:16:42;;;;;;;13.15;4.20;;;12.00;89.20;;;;;;5056944;28;20036;-81
2023/01/10 13:19:10;;;;;;;10.68;4.10;;;12.00;89.10;;;;;;5054855;28;20029;-80